Time;durP1;ratioP1;P1;durP2;ratioP2;P2;SDS_P1;SDS_P2;PMS_P1;PMS_P2;Temp;Humidity;BMP_temperature;BMP_pressure;BME280_temperature;BME280_humidity;BME280_pressure;Samples;Min_cycle;Max_cycle;Signal;HPM_P1;HPM_P2
2023/03/27 00:00:16;;;;;;;5.30;1.30;;;;;;;10.34;45.99;100181.88;5056855;27;97238;-72
2023/03/27 00:02:42;;;;;;;5.72;1.25;;;;;;;10.27;46.05;100190.13;5058245;27;97223;-71
2023/03/27 00:05:10;;;;;;;5.90;1.27;;;;;;;10.33;45.93;100195.16;5048028;27;97470;-71
2023/03/27 00:07:39;;;;;;;7.00;1.20;;;;;;;10.45;45.50;100194.63;5061135;27;99313;-72
2023/03/27 00:10:07;;;;;;;9.02;1.42;;;;;;;10.36;45.62;100201.19;5049390;27;98925;-69
2023/03/27 00:12:34;;;;;;;8.02;1.10;;;;;;;10.20;45.75;100210.66;5055137;27;97363;-70
2023/03/27 00:15:00;;;;;;;8.65;1.77;;;;;;;10.17;45.80;100209.94;5051304;27;97665;-71
2023/03/27 00:17:27;;;;;;;4.13;1.25;;;;;;;10.20;46.24;100210.66;5052576;27;99468;-71
2023/03/27 00:19:53;;;;;;;3.08;1.20;;;;;;;10.12;46.10;100219.78;5056091;27;98333;-72
2023/03/27 00:22:21;;;;;;;4.78;1.23;;;;;;;10.14;46.18;100217.94;5057429;27;96726;-71
2023/03/27 00:24:47;;;;;;;6.30;1.58;;;;;;;10.26;46.28;100228.88;5053007;27;97360;-72
2023/03/27 00:27:14;;;;;;;8.70;1.63;;;;;;;10.08;46.01;100231.41;5058519;27;99203;-71
2023/03/27 00:29:40;;;;;;;5.18;1.13;;;;;;;10.17;46.37;100226.66;5053958;27;99151;-72
2023/03/27 00:32:07;;;;;;;11.30;1.27;;;;;;;10.28;45.74;100229.69;5055803;27;97909;-72
2023/03/27 00:34:33;;;;;;;5.28;1.30;;;;;;;10.24;46.13;100235.19;5058239;27;97458;-71
2023/03/27 00:37:00;;;;;;;7.00;1.30;;;;;;;10.39;45.95;100237.16;5060660;27;98892;-72
2023/03/27 00:39:28;;;;;;;5.97;1.30;;;;;;;10.52;45.71;100238.34;5058013;27;97753;-70
2023/03/27 00:41:57;;;;;;;10.93;1.40;;;;;;;10.33;46.13;100248.84;5054550;27;96823;-70
2023/03/27 00:44:26;;;;;;;6.47;1.50;;;;;;;10.35;45.67;100247.00;5053225;27;99010;-70
2023/03/27 00:46:55;;;;;;;9.90;1.23;;;;;;;10.38;45.70;100252.13;5052279;27;98909;-71
2023/03/27 00:49:23;;;;;;;8.57;1.45;;;;;;;10.27;46.20;100254.38;5063259;27;99047;-71
2023/03/27 00:51:51;;;;;;;5.50;1.00;;;;;;;10.21;46.32;100265.19;5057364;27;96886;-71
2023/03/27 00:54:25;;;;;;;4.75;1.05;;;;;;;10.26;46.19;100265.00;5056313;27;99284;-72
2023/03/27 00:56:54;;;;;;;2.47;1.27;;;;;;;10.18;46.22;100265.31;5062193;27;98946;-71
2023/03/27 00:59:24;;;;;;;6.22;1.30;;;;;;;10.24;46.39;100269.50;5049662;27;99230;-70
2023/03/27 01:01:52;;;;;;;6.40;0.90;;;;;;;10.23;46.61;100273.91;5048925;27;97756;-71
2023/03/27 01:04:20;;;;;;;9.57;1.75;;;;;;;10.27;45.88;100279.91;5050531;27;97000;-70
2023/03/27 01:06:47;;;;;;;4.80;1.20;;;;;;;10.21;46.32;100273.13;5054707;27;99712;-70
2023/03/27 01:09:13;;;;;;;5.97;1.30;;;;;;;10.13;46.55;100277.81;5052105;27;98858;-70
2023/03/27 01:11:51;;;;;;;5.57;1.58;;;;;;;9.92;47.07;100276.03;5056839;27;97214;-70
2023/03/27 01:14:30;;;;;;;5.75;1.70;;;;;;;9.74;47.92;100282.06;5054641;27;96778;-71
2023/03/27 01:17:10;;;;;;;5.85;1.50;;;;;;;9.81;47.45;100289.66;5058195;27;99354;-69
2023/03/27 01:20:13;;;;;;;6.65;1.38;;;;;;;10.00;47.41;100295.06;5064579;27;98318;-70
2023/03/27 01:23:17;;;;;;;5.85;1.27;;;;;;;9.80;48.11;100301.13;5055772;27;96834;-69
2023/03/27 01:26:09;;;;;;;4.90;1.30;;;;;;;9.47;48.46;100302.44;5057692;27;97227;-69
2023/03/27 01:28:46;;;;;;;5.70;1.30;;;;;;;9.59;48.55;100316.03;5057849;27;97927;-69
2023/03/27 01:31:30;;;;;;;11.07;1.65;;;;;;;9.68;48.22;100316.59;5054445;27;102163;-70
2023/03/27 01:34:29;;;;;;;3.85;1.15;;;;;;;9.65;48.53;100322.84;5060660;27;98046;-70
2023/03/27 01:37:11;;;;;;;6.25;1.10;;;;;;;9.80;47.99;100324.03;5039236;27;97809;-70
2023/03/27 01:39:55;;;;;;;10.13;3.10;;;;;;;9.87;47.93;100328.16;5055406;27;98820;-70
2023/03/27 01:42:25;;;;;;;3.92;1.38;;;;;;;9.94;47.84;100321.72;5054383;27;100256;-70
2023/03/27 01:44:57;;;;;;;9.45;1.25;;;;;;;10.03;47.44;100317.84;5054623;27;97546;-71
2023/03/27 01:47:37;;;;;;;3.88;1.08;;;;;;;10.11;47.13;100327.16;5050845;27;96954;-70
2023/03/27 01:50:10;;;;;;;2.67;1.00;;;;;;;10.04;47.06;100330.16;5054625;27;99000;-70
2023/03/27 01:52:45;;;;;;;4.47;1.40;;;;;;;10.04;47.23;100332.78;5065338;27;99163;-70
2023/03/27 01:55:17;;;;;;;5.72;1.00;;;;;;;9.96;46.94;100336.59;5056706;27;96711;-70
2023/03/27 01:57:48;;;;;;;2.35;0.90;;;;;;;9.69;47.38;100334.16;5057867;27;99205;-69
2023/03/27 02:00:20;;;;;;;6.28;1.35;;;;;;;9.56;47.94;100339.03;5051579;27;99444;-70
2023/03/27 02:02:51;;;;;;;4.43;1.42;;;;;;;9.52;48.32;100347.94;5051501;27;100992;-69
2023/03/27 02:05:22;;;;;;;7.57;1.58;;;;;;;9.62;48.09;100348.50;5046893;27;97881;-69
2023/03/27 02:07:55;;;;;;;4.32;1.48;;;;;;;9.88;47.43;100346.56;5061237;27;96890;-69
2023/03/27 02:10:31;;;;;;;4.72;1.80;;;;;;;9.67;47.23;100351.81;5049844;27;98880;-69
2023/03/27 02:13:04;;;;;;;5.50;1.38;;;;;;;9.54;47.66;100359.31;5046752;27;99522;-71
2023/03/27 02:15:33;;;;;;;5.57;1.05;;;;;;;9.76;47.23;100360.25;5048549;27;98207;-71
2023/03/27 02:18:03;;;;;;;5.90;1.67;;;;;;;9.80;47.40;100360.97;5056040;27;97042;-71
2023/03/27 02:20:31;;;;;;;3.08;1.33;;;;;;;9.71;47.29;100362.19;5061542;27;103205;-71
2023/03/27 02:22:59;;;;;;;5.90;1.95;;;;;;;9.58;47.54;100372.31;5053737;27;98873;-70
2023/03/27 02:25:30;;;;;;;3.83;1.20;;;;;;;9.47;47.84;100371.00;5047670;27;97143;-70
2023/03/27 02:28:12;;;;;;;4.05;1.30;;;;;;;9.37;48.01;100378.41;5049029;27;96943;-70
2023/03/27 02:30:45;;;;;;;2.53;0.88;;;;;;;9.05;48.39;100386.59;5054269;27;99053;-70
2023/03/27 02:33:19;;;;;;;2.38;1.30;;;;;;;9.21;48.16;100393.03;5056522;27;100012;-71
2023/03/27 02:35:53;;;;;;;8.23;1.77;;;;;;;9.18;48.13;100393.16;5051149;27;97255;-71
2023/03/27 02:38:24;;;;;;;3.50;1.38;;;;;;;9.11;47.99;100404.84;5062016;27;97565;-71
2023/03/27 02:40:58;;;;;;;4.18;1.23;;;;;;;8.99;48.42;100407.91;5057878;27;100890;-71
2023/03/27 02:43:32;;;;;;;3.35;0.98;;;;;;;8.76;47.68;100408.66;5059197;27;97889;-71
2023/03/27 02:46:06;;;;;;;4.35;1.30;;;;;;;8.71;47.63;100415.88;5049235;27;98021;-70
2023/03/27 02:48:35;;;;;;;6.43;1.00;;;;;;;8.72;47.57;100415.81;5058193;27;97437;-71
2023/03/27 02:51:06;;;;;;;8.40;1.85;;;;;;;8.35;48.02;100421.41;5052392;27;98933;-70
2023/03/27 02:53:38;;;;;;;6.00;2.33;;;;;;;8.45;47.64;100432.53;5059327;27;99092;-70
2023/03/27 02:56:09;;;;;;;2.38;0.82;;;;;;;8.49;46.91;100441.16;5057390;27;98734;-70
2023/03/27 02:58:43;;;;;;;3.30;0.77;;;;;;;8.44;47.05;100441.31;5055100;27;96788;-70
2023/03/27 03:01:12;;;;;;;1.55;0.80;;;;;;;8.58;47.28;100448.78;5061116;27;101077;-72
2023/03/27 03:03:43;;;;;;;5.75;1.20;;;;;;;8.47;47.37;100448.28;5057955;27;98991;-70
2023/03/27 03:06:10;;;;;;;1.85;0.95;;;;;;;8.49;47.05;100455.19;5054138;27;97834;-71
2023/03/27 03:08:38;;;;;;;2.80;0.65;;;;;;;8.61;46.67;100462.69;5056616;27;96964;-70
2023/03/27 03:11:08;;;;;;;3.75;0.88;;;;;;;8.55;46.60;100455.00;5058818;27;99064;-70
2023/03/27 03:13:35;;;;;;;6.38;1.02;;;;;;;8.45;46.76;100466.75;5057260;27;99058;-70
2023/03/27 03:16:01;;;;;;;5.32;0.98;;;;;;;8.37;46.84;100460.84;5049030;27;98227;-71
2023/03/27 03:18:28;;;;;;;3.85;1.20;;;;;;;8.52;46.78;100473.56;5053065;27;96838;-70
2023/03/27 03:20:54;;;;;;;2.13;1.10;;;;;;;8.75;46.08;100470.16;5052844;27;98419;-71
2023/03/27 03:23:21;;;;;;;5.82;1.73;;;;;;;8.65;46.40;100471.38;5056357;27;101541;-71
2023/03/27 03:25:49;;;;;;;5.00;1.27;;;;;;;8.74;46.09;100479.84;5051806;27;97304;-71
2023/03/27 03:28:17;;;;;;;3.30;1.42;;;;;;;8.52;46.54;100489.34;5056802;27;96871;-71
2023/03/27 03:30:49;;;;;;;4.00;1.10;;;;;;;8.31;47.15;100487.38;5053237;27;98769;-71
2023/03/27 03:33:16;;;;;;;3.08;1.27;;;;;;;8.47;46.86;100495.69;5053862;27;99363;-70
2023/03/27 03:35:45;;;;;;;2.15;0.70;;;;;;;8.39;47.43;100502.03;5049645;27;97201;-71
2023/03/27 03:38:12;;;;;;;2.45;0.80;;;;;;;8.32;47.41;100510.16;5060990;27;97292;-72
2023/03/27 03:40:38;;;;;;;1.67;1.02;;;;;;;8.18;47.92;100507.03;5052443;27;97995;-70
2023/03/27 03:43:05;;;;;;;2.75;1.42;;;;;;;7.96;48.45;100505.00;5054759;27;98840;-70
2023/03/27 03:45:33;;;;;;;3.03;1.40;;;;;;;8.17;48.24;100519.34;5050628;27;97187;-72
2023/03/27 03:47:59;;;;;;;3.88;0.93;;;;;;;8.02;48.62;100519.75;5061976;27;97808;-71
2023/03/27 03:50:26;;;;;;;2.00;1.00;;;;;;;8.24;48.54;100523.50;5062915;27;98906;-71
2023/03/27 03:52:52;;;;;;;2.95;1.13;;;;;;;8.30;48.36;100519.81;5063170;27;99393;-70
2023/03/27 03:55:18;;;;;;;4.32;1.38;;;;;;;8.14;48.88;100523.84;5054188;27;96841;-71
2023/03/27 03:57:47;;;;;;;2.97;1.20;;;;;;;8.13;48.95;100528.22;5059796;27;96982;-71
2023/03/27 04:00:15;;;;;;;4.82;1.55;;;;;;;8.16;48.92;100537.78;5055322;27;97915;-70
2023/03/27 04:02:44;;;;;;;4.47;1.17;;;;;;;8.09;49.13;100531.84;5062572;27;99362;-71
2023/03/27 04:05:10;;;;;;;3.15;0.68;;;;;;;8.19;49.23;100542.97;5054434;27;97686;-70
2023/03/27 04:07:38;;;;;;;4.28;2.05;;;;;;;8.08;48.90;100540.63;5062899;27;97447;-72
2023/03/27 04:10:06;;;;;;;5.82;1.60;;;;;;;8.08;49.15;100537.13;5056383;27;99049;-70
2023/03/27 04:12:32;;;;;;;5.93;1.95;;;;;;;8.07;49.14;100538.06;5050181;27;99762;-71
2023/03/27 04:14:59;;;;;;;5.72;1.52;;;;;;;7.86;49.46;100544.78;5049399;27;98156;-69
2023/03/27 04:17:26;;;;;;;2.95;1.13;;;;;;;7.79;49.73;100553.75;5052027;27;98738;-72
2023/03/27 04:19:54;;;;;;;2.88;1.27;;;;;;;7.80;49.78;100558.13;5057849;27;99054;-71
2023/03/27 04:22:22;;;;;;;5.20;1.40;;;;;;;7.77;49.51;100555.56;5054666;27;98126;-70
2023/03/27 04:24:49;;;;;;;5.90;2.00;;;;;;;7.94;49.27;100561.25;5048391;27;97380;-72
2023/03/27 04:27:16;;;;;;;6.65;1.90;;;;;;;7.81;49.28;100559.84;5058186;27;96782;-71
2023/03/27 04:29:46;;;;;;;4.95;2.13;;;;;;;7.96;48.87;100570.78;5047133;27;99099;-71
2023/03/27 04:32:12;;;;;;;6.05;2.47;;;;;;;8.08;48.87;100572.22;5053331;27;99328;-73
2023/03/27 04:34:39;;;;;;;6.07;1.95;;;;;;;7.82;49.43;100580.81;5056274;27;96753;-71
2023/03/27 04:37:07;;;;;;;4.18;1.73;;;;;;;7.87;49.08;100578.09;5057700;27;97265;-71
2023/03/27 04:39:38;;;;;;;4.40;1.38;;;;;;;7.94;48.77;100579.66;5045723;27;99891;-71
2023/03/27 04:42:05;;;;;;;5.22;1.23;;;;;;;7.93;48.67;100586.69;5058272;27;98710;-70
2023/03/27 04:44:33;;;;;;;4.78;1.60;;;;;;;7.84;48.38;100588.69;5054048;27;96858;-70
2023/03/27 04:47:00;;;;;;;4.82;1.17;;;;;;;7.89;48.20;100586.78;5054171;27;97398;-73
2023/03/27 04:49:27;;;;;;;7.30;1.67;;;;;;;7.88;48.37;100585.91;5053223;27;102741;-69
2023/03/27 04:52:00;;;;;;;3.78;1.20;;;;;;;8.03;48.23;100589.91;5055832;27;96838;-72
2023/03/27 04:54:30;;;;;;;3.88;1.10;;;;;;;7.97;48.35;100595.34;5053515;27;96967;-71
2023/03/27 04:56:57;;;;;;;2.72;1.42;;;;;;;8.16;48.29;100598.31;5054483;27;96863;-72
2023/03/27 04:59:24;;;;;;;4.93;1.20;;;;;;;8.32;48.32;100603.16;5049199;27;99081;-73
2023/03/27 05:01:50;;;;;;;5.22;1.40;;;;;;;8.29;48.79;100608.47;5055813;27;98878;-72
2023/03/27 05:04:17;;;;;;;2.58;1.10;;;;;;;8.34;48.37;100621.53;5051058;27;98274;-71
2023/03/27 05:06:43;;;;;;;9.18;1.35;;;;;;;8.18;48.88;100614.94;5061135;27;97392;-71
2023/03/27 05:09:10;;;;;;;2.03;0.77;;;;;;;8.20;48.42;100629.81;5049848;27;98857;-71
2023/03/27 05:11:38;;;;;;;1.45;0.77;;;;;;;8.02;48.82;100628.50;5053492;27;101205;-70
2023/03/27 05:14:05;;;;;;;3.30;0.90;;;;;;;7.79;49.07;100635.28;5050522;27;98345;-70
2023/03/27 05:16:32;;;;;;;5.05;1.25;;;;;;;7.57;49.39;100627.06;5052210;27;97738;-72
2023/03/27 05:18:58;;;;;;;2.13;1.15;;;;;;;7.70;49.48;100635.53;5049415;27;98860;-71
2023/03/27 05:21:25;;;;;;;2.53;1.08;;;;;;;7.83;48.71;100642.19;5049782;27;99358;-72
2023/03/27 05:23:52;;;;;;;3.70;1.20;;;;;;;7.87;48.48;100646.50;5051737;27;96954;-73
2023/03/27 05:26:18;;;;;;;2.80;1.13;;;;;;;7.96;48.36;100649.72;5041933;27;98067;-69
2023/03/27 05:28:46;;;;;;;5.43;1.52;;;;;;;8.11;48.00;100648.47;5051643;27;99809;-70
2023/03/27 05:31:16;;;;;;;4.00;1.30;;;;;;;8.18;47.63;100652.66;5059237;27;99111;-71
2023/03/27 05:33:43;;;;;;;3.88;1.70;;;;;;;8.28;47.34;100653.25;5056019;27;98490;-72
2023/03/27 05:36:11;;;;;;;2.42;0.70;;;;;;;7.93;47.91;100656.84;5060128;27;98682;-70
2023/03/27 05:38:38;;;;;;;3.40;1.02;;;;;;;8.11;47.73;100663.41;5049575;27;98829;-72
2023/03/27 05:41:08;;;;;;;4.65;1.00;;;;;;;8.32;47.42;100658.47;5054424;27;99188;-72
2023/03/27 05:43:35;;;;;;;1.00;0.68;;;;;;;8.45;47.07;100666.00;5052911;27;97260;-71
2023/03/27 05:46:04;;;;;;;4.07;1.05;;;;;;;8.32;47.06;100676.88;5043663;27;98717;-71
2023/03/27 05:48:31;;;;;;;1.95;1.15;;;;;;;8.36;46.91;100675.88;5049590;27;97655;-73
2023/03/27 05:50:57;;;;;;;2.78;0.90;;;;;;;8.51;46.64;100676.38;5050725;27;99103;-71
2023/03/27 05:53:23;;;;;;;3.42;1.10;;;;;;;8.90;46.27;100684.88;5051057;27;97845;-72
2023/03/27 05:55:50;;;;;;;3.58;1.17;;;;;;;8.66;46.67;100697.84;5052475;27;97673;-70
2023/03/27 05:58:16;;;;;;;5.97;1.90;;;;;;;8.73;45.95;100698.53;5054412;27;98983;-70
2023/03/27 06:00:45;;;;;;;3.22;1.77;;;;;;;8.48;46.54;100693.09;5049414;27;97676;-70
2023/03/27 06:03:14;;;;;;;2.67;1.38;;;;;;;8.66;46.17;100702.28;5060822;27;96842;-72
2023/03/27 06:05:41;;;;;;;4.10;1.75;;;;;;;8.78;46.33;100712.47;5052668;27;99506;-73
2023/03/27 06:08:09;;;;;;;4.72;1.70;;;;;;;8.70;46.15;100706.53;5057590;27;98903;-72
2023/03/27 06:10:37;;;;;;;2.70;1.58;;;;;;;8.65;45.89;100717.22;5056614;27;98145;-72
2023/03/27 06:13:05;;;;;;;6.78;3.03;;;;;;;8.92;45.69;100726.13;5055749;27;97165;-71
2023/03/27 06:15:32;;;;;;;6.50;3.17;;;;;;;8.62;46.05;100721.69;5050873;27;97590;-70
2023/03/27 06:17:58;;;;;;;5.32;2.10;;;;;;;8.65;45.80;100726.88;5060836;27;97951;-71
2023/03/27 06:20:27;;;;;;;3.60;1.30;;;;;;;8.53;46.34;100730.75;5055103;27;102069;-70
2023/03/27 06:22:55;;;;;;;4.65;1.20;;;;;;;8.50;45.60;100737.84;5055374;27;96844;-71
2023/03/27 06:25:24;;;;;;;3.03;1.08;;;;;;;8.66;45.66;100740.00;5053115;27;97199;-71
2023/03/27 06:27:51;;;;;;;3.58;1.27;;;;;;;8.67;45.69;100741.72;5057517;27;99494;-71
2023/03/27 06:30:20;;;;;;;2.70;1.83;;;;;;;9.01;44.89;100751.31;5054424;27;99275;-71
2023/03/27 06:32:49;;;;;;;7.53;2.33;;;;;;;9.38;44.30;100748.47;5055051;27;97578;-71
2023/03/27 06:35:16;;;;;;;2.97;1.60;;;;;;;9.63;43.82;100752.06;5057126;27;97148;-71
2023/03/27 06:37:47;;;;;;;1.90;1.10;;;;;;;9.55;43.79;100746.16;5053108;27;98984;-71
2023/03/27 06:40:21;;;;;;;3.88;1.90;;;;;;;10.02;42.96;100743.78;5050357;27;100198;-71
2023/03/27 06:42:52;;;;;;;7.65;2.58;;;;;;;9.97;42.72;100752.72;5056774;27;96982;-71
2023/03/27 06:45:18;;;;;;;9.65;2.75;;;;;;;9.82;42.90;100757.63;5048840;27;97295;-71
2023/03/27 06:47:49;;;;;;;9.43;2.13;;;;;;;9.78;43.28;100767.41;5056638;27;99000;-71
2023/03/27 06:50:18;;;;;;;6.05;2.22;;;;;;;9.48;43.84;100768.38;5057144;27;99178;-71
2023/03/27 06:52:47;;;;;;;5.32;2.40;;;;;;;9.37;44.39;100775.75;5058830;27;96688;-71
2023/03/27 06:55:14;;;;;;;4.80;1.67;;;;;;;9.62;43.78;100774.09;5052779;27;97447;-72
2023/03/27 06:57:43;;;;;;;5.28;2.20;;;;;;;9.48;44.59;100787.69;5052319;27;102508;-70
2023/03/27 07:00:11;;;;;;;3.53;1.73;;;;;;;9.45;44.18;100787.78;5053963;27;100764;-71
2023/03/27 07:02:38;;;;;;;4.80;2.10;;;;;;;9.55;44.38;100788.38;5052440;27;97130;-70
2023/03/27 07:05:06;;;;;;;17.45;3.13;;;;;;;9.58;43.99;100789.13;5054155;27;97487;-71
2023/03/27 07:07:32;;;;;;;3.03;1.48;;;;;;;9.51;44.30;100792.91;5059808;27;98934;-70
2023/03/27 07:10:15;;;;;;;2.78;1.20;;;;;;;9.57;44.29;100795.34;5055020;27;97660;-73
2023/03/27 07:12:44;;;;;;;2.90;1.50;;;;;;;9.57;44.58;100799.75;5056768;27;97271;-69
2023/03/27 07:15:11;;;;;;;2.38;1.40;;;;;;;9.83;44.32;100793.66;5052253;27;96880;-71
2023/03/27 07:17:42;;;;;;;3.55;1.60;;;;;;;10.42;42.79;100797.03;5062093;27;99177;-71
2023/03/27 07:20:10;;;;;;;3.78;1.20;;;;;;;10.27;42.64;100797.53;5057101;27;102520;-71
2023/03/27 07:22:37;;;;;;;4.22;1.27;;;;;;;10.12;42.95;100798.00;5055884;27;96902;-72
2023/03/27 07:25:04;;;;;;;4.28;1.90;;;;;;;10.27;42.71;100803.66;5054389;27;97044;-71
2023/03/27 07:27:32;;;;;;;4.82;1.63;;;;;;;10.58;42.13;100798.19;5049792;27;98940;-72
2023/03/27 07:30:00;;;;;;;3.03;1.05;;;;;;;10.57;42.06;100804.41;5061063;27;97520;-72
2023/03/27 07:32:28;;;;;;;5.38;1.30;;;;;;;10.58;42.03;100806.13;5052150;27;97381;-71
2023/03/27 07:34:55;;;;;;;4.63;1.48;;;;;;;10.12;42.88;100809.41;5056715;27;98137;-72
2023/03/27 07:37:22;;;;;;;4.78;1.02;;;;;;;10.08;43.21;100812.22;5054188;27;100545;-71
2023/03/27 07:39:48;;;;;;;1.38;1.10;;;;;;;10.23;42.28;100822.31;5054648;27;98882;-72
2023/03/27 07:42:15;;;;;;;2.15;1.08;;;;;;;10.27;42.85;100805.44;5050783;27;97255;-71
2023/03/27 07:44:43;;;;;;;7.18;2.83;;;;;;;10.87;41.64;100813.06;5047472;27;96912;-71
2023/03/27 07:50:10;;;;;;;4.35;1.23;;;;;;;10.45;41.52;100812.75;5045646;27;98442;-71
2023/03/27 07:52:39;;;;;;;10.05;1.90;;;;;;;10.75;41.22;100816.13;5054578;27;97086;-71
2023/03/27 07:55:06;;;;;;;4.68;1.40;;;;;;;11.08;39.89;100816.72;5050107;27;96900;-71
2023/03/27 07:57:37;;;;;;;6.35;1.33;;;;;;;10.86;40.38;100815.75;5054090;27;99060;-70
2023/03/27 08:00:10;;;;;;;6.18;1.50;;;;;;;10.77;40.32;100820.44;5053507;27;97200;-72
2023/03/27 08:02:37;;;;;;;8.30;1.52;;;;;;;10.78;39.54;100816.88;5052916;27;97469;-71
2023/03/27 08:05:05;;;;;;;10.52;1.58;;;;;;;10.92;37.97;100812.88;5056377;27;98724;-73
2023/03/27 08:07:32;;;;;;;5.13;1.30;;;;;;;10.19;39.14;100816.25;5056868;27;99900;-72
2023/03/27 08:09:58;;;;;;;6.07;1.70;;;;;;;10.27;40.24;100819.53;5050959;27;99264;-72
2023/03/27 08:12:25;;;;;;;3.95;1.48;;;;;;;10.55;39.06;100819.47;5051619;27;98491;-72
2023/03/27 08:14:53;;;;;;;8.23;2.75;;;;;;;10.61;38.57;100813.97;5050288;27;97361;-72
2023/03/27 08:17:21;;;;;;;8.90;2.50;;;;;;;10.67;38.26;100828.75;5056710;27;99679;-71
2023/03/27 08:19:47;;;;;;;10.43;3.10;;;;;;;10.76;37.72;100820.50;5050297;27;99249;-72
2023/03/27 08:22:13;;;;;;;7.78;2.05;;;;;;;11.20;36.76;100826.84;5051370;27;97377;-72
2023/03/27 08:24:51;;;;;;;4.28;1.58;;;;;;;11.33;35.80;100822.81;5054024;27;96893;-73
2023/03/27 08:27:17;;;;;;;2.75;1.30;;;;;;;11.28;35.65;100824.78;5050764;27;99295;-72
2023/03/27 08:29:43;;;;;;;2.22;0.90;;;;;;;11.58;35.34;100830.69;5055143;27;99054;-70
2023/03/27 08:32:10;;;;;;;5.47;1.40;;;;;;;11.51;35.06;100827.41;5055725;27;96911;-71
2023/03/27 08:34:39;;;;;;;6.30;1.50;;;;;;;10.77;36.15;100840.72;5051422;27;96801;-72
2023/03/27 08:37:07;;;;;;;4.70;1.50;;;;;;;10.94;36.07;100834.84;5052163;27;99270;-76
2023/03/27 08:39:34;;;;;;;7.95;1.42;;;;;;;10.70;36.50;100840.06;5056415;27;98810;-78
2023/03/27 08:42:04;;;;;;;7.03;1.42;;;;;;;10.78;35.90;100847.72;5055407;27;98859;-72
2023/03/27 08:44:32;;;;;;;3.00;0.80;;;;;;;10.55;35.80;100851.16;5050395;27;97107;-72
2023/03/27 08:47:03;;;;;;;2.63;0.90;;;;;;;10.75;35.88;100848.72;5056166;27;99221;-72
2023/03/27 08:49:33;;;;;;;2.45;1.20;;;;;;;11.18;35.64;100847.19;5054261;27;98773;-72
2023/03/27 08:52:05;;;;;;;7.70;1.00;;;;;;;11.61;34.89;100853.53;5056970;27;97060;-71
2023/03/27 08:54:34;;;;;;;2.90;0.90;;;;;;;11.38;34.84;100863.19;5053546;27;97479;-72
2023/03/27 08:57:00;;;;;;;5.68;1.23;;;;;;;11.35;35.51;100858.03;5048734;27;97990;-71
2023/03/27 08:59:30;;;;;;;5.05;1.05;;;;;;;11.31;35.61;100859.03;5056734;27;99245;-72
2023/03/27 09:02:07;;;;;;;5.60;1.10;;;;;;;11.06;35.66;100879.34;5050040;27;98283;-72
2023/03/27 09:04:42;;;;;;;8.38;1.02;;;;;;;10.77;35.77;100870.66;5055947;27;97027;-77
2023/03/27 09:07:16;;;;;;;5.18;0.98;;;;;;;10.76;36.19;100870.72;5055187;27;99030;-75
2023/03/27 09:09:54;;;;;;;6.80;1.05;;;;;;;11.21;34.98;100876.19;5049859;27;98994;-77
2023/03/27 09:12:34;;;;;;;2.95;0.90;;;;;;;11.49;33.80;100882.16;5048911;27;97242;-76
2023/03/27 09:15:09;;;;;;;1.48;0.93;;;;;;;11.81;33.12;100882.78;5048052;27;97604;-77
2023/03/27 09:17:40;;;;;;;2.85;0.90;;;;;;;11.91;32.45;100876.22;5053583;27;98998;-76
2023/03/27 09:20:16;;;;;;;5.38;0.88;;;;;;;12.40;32.19;100874.25;5055342;27;99222;-76
2023/03/27 09:22:49;;;;;;;1.70;0.70;;;;;;;11.84;32.48;100875.59;5056931;27;97379;-78
2023/03/27 09:25:23;;;;;;;4.22;0.77;;;;;;;12.23;32.74;100882.88;5047288;27;96812;-77
2023/03/27 09:27:51;;;;;;;0.93;0.60;;;;;;;12.18;31.88;100877.78;5054487;27;99187;-77
2023/03/27 09:30:23;;;;;;;3.47;0.80;;;;;;;12.44;31.20;100871.41;5049689;27;99049;-76
2023/03/27 09:32:53;;;;;;;1.95;0.65;;;;;;;12.31;31.36;100871.06;5052213;27;96876;-75
2023/03/27 09:35:21;;;;;;;1.85;0.77;;;;;;;12.20;32.07;100883.03;5057387;27;97221;-77
2023/03/27 09:37:55;;;;;;;1.30;0.68;;;;;;;12.62;31.40;100885.69;5049934;27;98879;-78
2023/03/27 09:40:29;;;;;;;0.70;0.70;;;;;;;12.85;31.45;100893.56;5058662;27;98956;-76
2023/03/27 09:42:55;;;;;;;3.72;1.00;;;;;;;12.63;31.40;100888.28;5058135;27;99871;-75
2023/03/27 09:45:22;;;;;;;3.10;0.60;;;;;;;11.62;32.16;100879.91;5066329;27;97760;-77
2023/03/27 09:47:58;;;;;;;6.00;0.75;;;;;;;11.21;32.22;100893.81;5061398;27;98956;-76
2023/03/27 09:50:29;;;;;;;0.80;0.50;;;;;;;11.67;32.17;100893.00;5054728;27;97929;-76
2023/03/27 09:53:12;;;;;;;5.20;1.15;;;;;;;12.64;30.52;100886.50;5058545;27;97525;-77
2023/03/27 09:55:51;;;;;;;3.88;1.13;;;;;;;13.25;29.90;100891.88;5059012;27;97996;-77
2023/03/27 09:58:25;;;;;;;8.35;1.10;;;;;;;13.30;29.71;100900.47;5060884;27;99343;-76
2023/03/27 10:01:07;;;;;;;4.25;1.58;;;;;;;12.30;30.46;100901.13;5060506;27;101600;-76
2023/03/27 10:03:37;;;;;;;3.72;1.17;;;;;;;11.94;31.72;100897.28;5054963;27;96848;-75
2023/03/27 10:06:06;;;;;;;6.90;0.90;;;;;;;11.70;32.43;100911.41;5052245;27;97648;-77
2023/03/27 10:08:39;;;;;;;4.50;0.70;;;;;;;12.27;31.66;100901.22;5054766;27;98942;-74
2023/03/27 10:11:08;;;;;;;4.03;1.00;;;;;;;12.77;30.00;100900.97;5061587;27;98747;-77
2023/03/27 10:13:35;;;;;;;2.97;0.80;;;;;;;12.70;28.71;100902.16;5051067;27;96711;-77
2023/03/27 10:16:04;;;;;;;1.02;0.60;;;;;;;12.57;29.35;100903.59;5048479;27;99860;-78
2023/03/27 10:18:33;;;;;;;1.20;0.77;;;;;;;12.38;29.53;100893.72;5051537;27;99404;-76
2023/03/27 10:21:07;;;;;;;2.92;0.85;;;;;;;12.73;29.43;100910.81;5058889;27;98971;-76
2023/03/27 10:23:42;;;;;;;2.33;0.73;;;;;;;12.68;29.29;100907.50;5055129;27;97184;-76
2023/03/27 10:26:12;;;;;;;3.28;1.13;;;;;;;12.87;28.41;100907.59;5058743;27;97523;-76
2023/03/27 10:28:47;;;;;;;7.43;1.10;;;;;;;12.30;28.88;100909.06;5056218;27;102448;-77
2023/03/27 10:31:26;;;;;;;7.47;1.70;;;;;;;12.17;29.30;100906.97;5056311;27;98888;-77
2023/03/27 10:33:53;;;;;;;6.35;1.10;;;;;;;12.42;29.73;100913.00;5051539;27;97436;-77
2023/03/27 10:36:20;;;;;;;3.25;1.00;;;;;;;12.66;28.91;100913.81;5051171;27;97443;-77
2023/03/27 10:38:55;;;;;;;1.15;0.50;;;;;;;12.15;28.48;100922.91;5052566;27;99268;-77
2023/03/27 10:41:22;;;;;;;2.58;0.73;;;;;;;11.86;28.89;100933.78;5055954;27;98371;-77
2023/03/27 10:43:49;;;;;;;2.45;0.68;;;;;;;11.56;28.81;100939.25;5055364;27;98287;-76
2023/03/27 10:46:19;;;;;;;4.03;0.68;;;;;;;11.86;29.04;100934.66;5055202;27;96918;-76
2023/03/27 10:48:53;;;;;;;1.98;0.80;;;;;;;12.25;29.17;100940.19;5055882;27;98961;-77
2023/03/27 10:51:37;;;;;;;2.70;0.85;;;;;;;12.38;29.20;100935.28;5058432;27;99821;-76
2023/03/27 10:54:15;;;;;;;3.63;0.70;;;;;;;12.78;28.96;100939.81;5055280;27;97178;-76
2023/03/27 10:56:51;;;;;;;3.08;0.93;;;;;;;12.67;29.34;100936.72;5050679;27;97255;-76
2023/03/27 10:59:22;;;;;;;5.07;1.33;;;;;;;12.32;29.84;100940.81;5054180;27;99472;-77
2023/03/27 11:01:53;;;;;;;4.93;0.90;;;;;;;11.55;30.58;100947.25;5058950;27;100200;-77
2023/03/27 11:04:24;;;;;;;3.95;1.00;;;;;;;11.43;30.86;100953.84;5060718;27;97253;-76
2023/03/27 11:06:57;;;;;;;8.40;0.90;;;;;;;11.24;31.62;100939.53;5052181;27;96909;-77
2023/03/27 11:09:29;;;;;;;4.25;0.93;;;;;;;11.54;31.42;100943.75;5050706;27;97861;-77
2023/03/27 11:12:01;;;;;;;3.22;0.85;;;;;;;11.85;30.89;100929.41;5055164;27;98693;-76
2023/03/27 11:14:32;;;;;;;0.90;0.50;;;;;;;11.99;29.21;100929.75;5054048;27;97706;-76
2023/03/27 11:17:03;;;;;;;4.50;0.60;;;;;;;12.47;28.72;100932.22;5055774;27;97235;-76
2023/03/27 11:19:41;;;;;;;3.08;0.52;;;;;;;12.52;28.08;100932.06;5053353;27;100984;-76
2023/03/27 11:22:13;;;;;;;4.75;1.27;;;;;;;12.48;28.01;100925.16;5054230;27;98827;-76
2023/03/27 11:24:47;;;;;;;7.05;1.10;;;;;;;12.47;27.12;100928.75;5057358;27;96907;-77
2023/03/27 11:27:17;;;;;;;3.72;0.90;;;;;;;12.41;26.49;100931.63;5048704;27;97350;-78
2023/03/27 11:29:50;;;;;;;1.38;0.80;;;;;;;12.25;26.67;100940.19;5058596;27;99303;-76
2023/03/27 11:32:27;;;;;;;3.20;0.52;;;;;;;12.28;26.47;100929.47;5055677;27;97796;-77
2023/03/27 11:34:57;;;;;;;6.05;0.93;;;;;;;12.64;26.16;100928.91;5052567;27;98609;-77
2023/03/27 11:37:32;;;;;;;2.40;1.02;;;;;;;13.04;25.94;100928.97;5060569;27;98960;-77
2023/03/27 11:40:05;;;;;;;3.00;0.75;;;;;;;12.50;26.76;100939.22;5059958;27;99139;-77
2023/03/27 11:42:43;;;;;;;3.55;0.70;;;;;;;12.51;26.14;100938.28;5060921;27;98760;-77
2023/03/27 11:45:12;;;;;;;3.53;0.60;;;;;;;12.87;26.26;100950.03;5057971;27;97949;-78